createdAt,value
2022-11-28T00:01:00.295Z,26.80
2022-11-28T00:03:35.233Z,25.20
2022-11-28T00:06:10.275Z,25.00
2022-11-28T00:08:45.344Z,29.90
2022-11-28T00:11:20.247Z,26.30
2022-11-28T00:13:59.291Z,29.30
2022-11-28T00:16:34.410Z,31.60
2022-11-28T00:19:14.047Z,30.00
2022-11-28T00:21:48.921Z,29.40
2022-11-28T00:24:21.887Z,28.30
2022-11-28T00:26:54.976Z,29.10
2022-11-28T00:29:43.092Z,28.90
2022-11-28T00:32:17.976Z,30.20
2022-11-28T00:34:52.585Z,30.40
2022-11-28T00:37:27.542Z,30.90
2022-11-28T00:40:00.660Z,32.50
2022-11-28T00:42:39.392Z,31.40
2022-11-28T00:45:13.882Z,34.10
2022-11-28T00:48:00.170Z,32.00
2022-11-28T00:50:33.394Z,29.80
2022-11-28T00:53:08.097Z,29.30
2022-11-28T00:55:43.095Z,31.80
2022-11-28T00:58:18.062Z,29.40
2022-11-28T01:00:51.408Z,29.10
2022-11-28T01:03:24.374Z,30.50
2022-11-28T01:05:59.142Z,30.90
2022-11-28T01:08:33.795Z,29.40
2022-11-28T01:11:14.455Z,29.40
2022-11-28T01:13:47.350Z,28.40
2022-11-28T01:16:20.534Z,28.70
2022-11-28T01:18:55.364Z,30.20
2022-11-28T01:21:30.124Z,32.50
2022-11-28T01:24:03.175Z,28.40
2022-11-28T01:26:36.274Z,29.90
2022-11-28T01:29:11.875Z,28.80
2022-11-28T01:31:46.675Z,28.60
2022-11-28T01:34:21.676Z,29.00
2022-11-28T01:36:56.511Z,28.10
2022-11-28T01:39:29.493Z,27.50
2022-11-28T01:42:02.520Z,31.00
2022-11-28T01:44:35.684Z,28.20
2022-11-28T01:47:08.868Z,28.90
2022-11-28T01:49:42.576Z,30.60
2022-11-28T01:52:20.265Z,26.70
2022-11-28T01:54:59.261Z,28.50
2022-11-28T01:57:34.073Z,31.20
2022-11-28T02:00:17.378Z,29.10
2022-11-28T02:03:00.020Z,25.50
2022-11-28T02:05:33.608Z,27.70
2022-11-28T02:08:10.275Z,28.70
2022-11-28T02:10:59.949Z,28.40
2022-11-28T02:13:52.981Z,28.60
2022-11-28T02:16:34.809Z,26.50
2022-11-28T02:19:43.271Z,31.90
2022-11-28T02:22:23.474Z,27.30
2022-11-28T02:25:24.766Z,29.00
2022-11-28T02:28:30.016Z,29.10
2022-11-28T02:31:24.745Z,28.10
2022-11-28T02:34:01.604Z,29.70
2022-11-28T02:36:48.163Z,29.30
2022-11-28T02:40:00.798Z,29.40
2022-11-28T02:42:55.270Z,28.00
2022-11-28T02:48:40.026Z,27.60
2022-11-28T02:51:28.857Z,27.90
2022-11-28T02:53:58.910Z,31.70
2022-11-28T02:56:27.398Z,28.50
2022-11-28T02:58:55.938Z,31.00
2022-11-28T03:01:35.021Z,27.20
2022-11-28T03:04:09.339Z,30.80
2022-11-28T03:06:52.415Z,29.20
2022-11-28T03:09:32.768Z,29.30
2022-11-28T03:12:26.595Z,28.60
2022-11-28T03:15:06.748Z,27.40
2022-11-28T03:17:56.002Z,31.30
2022-11-28T03:20:53.333Z,29.60
2022-11-28T03:23:43.767Z,29.40
2022-11-28T03:26:27.022Z,31.10
2022-11-28T03:29:13.998Z,28.10
2022-11-28T03:31:57.861Z,30.00
2022-11-28T03:34:38.793Z,31.50
2022-11-28T03:37:20.805Z,28.80
2022-11-28T03:40:02.335Z,27.70
2022-11-28T03:42:41.884Z,27.50
2022-11-28T03:45:26.010Z,30.00
2022-11-28T03:50:53.519Z,28.50
2022-11-28T03:53:36.765Z,27.10
2022-11-28T03:56:39.281Z,29.10
2022-11-28T03:59:24.781Z,28.90
2022-11-28T04:02:12.684Z,28.00
2022-11-28T04:05:02.545Z,26.10
2022-11-28T04:07:51.033Z,29.30
2022-11-28T04:10:29.722Z,28.60
2022-11-28T04:13:20.587Z,27.00
2022-11-28T04:16:03.988Z,29.00
2022-11-28T04:19:02.369Z,30.10
2022-11-28T04:21:35.306Z,27.40
2022-11-28T04:24:32.202Z,27.40
2022-11-28T04:27:12.511Z,24.90
2022-11-28T04:30:03.532Z,29.40
2022-11-28T04:32:40.784Z,27.30
2022-11-28T04:35:32.488Z,27.30
2022-11-28T04:38:03.931Z,25.80
2022-11-28T04:40:38.781Z,26.10
2022-11-28T04:43:21.484Z,24.60
2022-11-28T04:46:05.516Z,25.00
2022-11-28T04:48:39.132Z,25.20
2022-11-28T04:51:23.567Z,23.80
2022-11-28T04:54:15.894Z,23.60
2022-11-28T04:57:14.791Z,28.10
2022-11-28T04:59:50.337Z,24.70
2022-11-28T05:02:26.567Z,23.70
2022-11-28T05:05:01.542Z,25.70
2022-11-28T05:07:36.368Z,25.10
2022-11-28T05:10:13.133Z,23.50
2022-11-28T05:12:48.022Z,25.00
2022-11-28T05:15:22.551Z,27.60
2022-11-28T05:17:57.628Z,26.60
2022-11-28T05:20:32.875Z,26.10
2022-11-28T05:23:20.965Z,25.30
2022-11-28T05:25:54.120Z,24.30
2022-11-28T05:28:27.220Z,27.00
2022-11-28T05:31:01.550Z,18.10
2022-11-28T05:33:34.755Z,25.10
2022-11-28T05:36:13.555Z,19.40
2022-11-28T05:38:48.642Z,24.60
2022-11-28T05:41:28.390Z,24.80
2022-11-28T05:43:58.538Z,24.40
2022-11-28T05:46:31.752Z,23.80
2022-11-28T05:49:04.891Z,18.10
2022-11-28T05:51:39.611Z,19.30
2022-11-28T05:54:12.313Z,24.40
2022-11-28T05:56:42.528Z,25.30
2022-11-28T05:59:14.727Z,21.50
2022-11-28T06:01:43.332Z,22.10
2022-11-28T06:04:12.134Z,23.40
2022-11-28T06:06:40.559Z,23.00
2022-11-28T06:09:09.022Z,22.70
2022-11-28T06:11:37.418Z,24.90
2022-11-28T06:14:11.199Z,22.20
2022-11-28T06:16:41.683Z,22.70
2022-11-28T06:19:13.742Z,21.50
2022-11-28T06:21:42.468Z,21.20
2022-11-28T06:24:11.259Z,21.10
2022-11-28T06:26:44.187Z,20.50
2022-11-28T06:29:17.270Z,20.00
2022-11-28T06:31:52.193Z,20.60
2022-11-28T06:34:21.301Z,19.20
2022-11-28T06:36:50.107Z,21.60
2022-11-28T06:39:18.660Z,19.20
2022-11-28T06:41:47.071Z,20.20
2022-11-28T06:44:16.626Z,20.50
2022-11-28T06:46:49.434Z,19.60
2022-11-28T06:49:23.784Z,21.40
2022-11-28T06:51:53.319Z,20.00
2022-11-28T06:54:22.348Z,18.40
2022-11-28T06:56:50.915Z,19.80
2022-11-28T06:59:19.454Z,18.40
2022-11-28T07:01:47.946Z,20.20
2022-11-28T07:04:16.821Z,20.60
2022-11-28T07:06:45.247Z,19.50
2022-11-28T07:09:13.885Z,18.80
2022-11-28T07:11:42.905Z,20.70
2022-11-28T07:14:11.727Z,20.00
2022-11-28T07:16:40.381Z,20.80
2022-11-28T07:19:11.373Z,18.40
2022-11-28T07:21:39.798Z,22.50
2022-11-28T07:24:08.745Z,20.40
2022-11-28T07:26:38.355Z,20.10
2022-11-28T07:29:07.755Z,21.40
2022-11-28T07:31:37.500Z,19.60
2022-11-28T07:34:06.320Z,19.90
2022-11-28T07:36:34.721Z,21.00
2022-11-28T07:39:05.417Z,18.70
2022-11-28T07:41:33.902Z,19.80
2022-11-28T07:44:03.944Z,22.20
2022-11-28T07:46:34.429Z,20.10
2022-11-28T07:49:04.635Z,21.00
2022-11-28T07:51:34.130Z,20.40
2022-11-28T07:54:04.170Z,19.30
2022-11-28T07:57:04.571Z,21.50
2022-11-28T07:59:24.287Z,21.30
2022-11-28T08:01:54.219Z,22.20
2022-11-28T08:04:23.371Z,22.50
2022-11-28T08:06:51.918Z,23.00
2022-11-28T08:09:20.433Z,24.70
2022-11-28T08:11:51.656Z,23.80
2022-11-28T08:14:20.675Z,23.20
2022-11-28T08:16:49.946Z,24.00
2022-11-28T08:19:22.955Z,22.90
2022-11-28T08:21:53.432Z,22.90
2022-11-28T08:24:21.879Z,23.00
2022-11-28T08:26:50.359Z,21.70
2022-11-28T08:29:18.847Z,23.40
2022-11-28T08:31:47.420Z,21.90
2022-11-28T08:34:15.986Z,21.20
2022-11-28T08:36:44.388Z,23.10
2022-11-28T08:39:28.281Z,20.10
2022-11-28T08:41:57.862Z,21.10
2022-11-28T08:44:30.322Z,22.70
2022-11-28T08:47:02.477Z,21.20
2022-11-28T08:49:31.124Z,21.50
2022-11-28T08:52:00.176Z,23.10
2022-11-28T08:54:28.936Z,27.40
2022-11-28T08:56:57.859Z,24.90
2022-11-28T08:59:26.355Z,18.50
2022-11-28T09:01:56.334Z,22.10
2022-11-28T09:04:24.794Z,21.70
2022-11-28T09:06:53.605Z,22.40
2022-11-28T09:09:22.285Z,22.70
2022-11-28T09:11:50.845Z,22.60
2022-11-28T09:14:19.264Z,20.30
2022-11-28T09:16:48.952Z,22.10
2022-11-28T09:19:17.435Z,22.10
2022-11-28T09:21:45.850Z,22.90
2022-11-28T09:24:16.911Z,21.30
2022-11-28T09:26:45.466Z,21.40
2022-11-28T09:29:14.016Z,21.60
2022-11-28T09:31:47.095Z,19.80
2022-11-28T09:36:44.764Z,20.40
2022-11-28T09:39:13.153Z,22.90
2022-11-28T09:41:54.719Z,22.50
2022-11-28T09:44:34.116Z,24.00
2022-11-28T09:47:20.069Z,21.90
2022-11-28T09:49:52.947Z,21.30
2022-11-28T09:52:35.737Z,15.20
2022-11-28T09:55:34.408Z,20.70
2022-11-28T09:58:19.473Z,21.30
2022-11-28T10:01:08.403Z,23.20
2022-11-28T10:04:03.406Z,22.10
2022-11-28T10:06:43.496Z,22.80
2022-11-28T10:09:30.745Z,22.10
2022-11-28T10:12:08.467Z,22.00
2022-11-28T10:15:00.366Z,22.20
2022-11-28T10:17:43.337Z,25.50
2022-11-28T10:20:18.214Z,30.00
2022-11-28T10:22:52.711Z,24.20
2022-11-28T10:25:44.528Z,23.60
2022-11-28T10:28:22.184Z,20.20
2022-11-28T10:31:04.735Z,24.20
2022-11-28T10:34:22.216Z,23.20
2022-11-28T10:37:15.029Z,25.20
2022-11-28T10:39:45.118Z,23.30
2022-11-28T10:42:24.212Z,23.80
2022-11-28T10:45:20.190Z,22.40
2022-11-28T10:51:12.865Z,21.40
2022-11-28T10:54:09.967Z,23.20
2022-11-28T10:56:59.554Z,23.70
2022-11-28T10:59:37.715Z,22.20
2022-11-28T11:02:57.001Z,24.50
2022-11-28T11:05:28.447Z,25.30
2022-11-28T11:08:02.797Z,22.10
2022-11-28T11:10:56.812Z,23.40
2022-11-28T11:13:30.805Z,21.40
2022-11-28T11:18:41.557Z,22.70
2022-11-28T11:21:20.080Z,21.90
2022-11-28T11:23:50.404Z,23.30
2022-11-28T11:26:21.757Z,20.10
2022-11-28T11:28:51.393Z,22.50
2022-11-28T11:31:30.339Z,20.40
2022-11-28T11:34:05.153Z,19.10
2022-11-28T11:36:36.007Z,20.20
2022-11-28T11:39:08.418Z,24.00
2022-11-28T11:41:38.661Z,23.00
2022-11-28T11:44:15.938Z,21.20
2022-11-28T11:46:52.307Z,21.70
2022-11-28T11:49:40.620Z,21.50
2022-11-28T11:52:13.150Z,23.00
2022-11-28T11:54:47.496Z,23.10
2022-11-28T11:57:32.714Z,21.40
2022-11-28T12:00:19.690Z,21.60
2022-11-28T12:02:59.517Z,21.10
2022-11-28T12:06:12.244Z,23.70
2022-11-28T12:11:15.009Z,27.60
2022-11-28T12:13:43.622Z,22.80
2022-11-28T12:16:34.000Z,24.40
2022-11-28T12:19:32.345Z,23.30
2022-11-28T12:22:08.802Z,23.70
2022-11-28T12:25:03.067Z,26.20
2022-11-28T12:27:50.101Z,24.40
2022-11-28T12:30:44.928Z,23.80
2022-11-28T12:33:31.496Z,22.70
2022-11-28T12:36:18.620Z,23.20
2022-11-28T12:39:06.269Z,24.40
2022-11-28T12:41:54.183Z,21.50
2022-11-28T12:44:33.135Z,22.10
2022-11-28T12:47:32.400Z,25.00
2022-11-28T12:50:22.721Z,22.70
2022-11-28T12:53:18.693Z,23.30
2022-11-28T12:56:05.119Z,21.00
2022-11-28T12:58:54.338Z,21.20
2022-11-28T13:01:28.784Z,21.40
2022-11-28T13:04:14.352Z,20.20
2022-11-28T13:06:57.869Z,20.60
2022-11-28T13:09:50.923Z,20.50
2022-11-28T13:12:44.056Z,21.60
2022-11-28T13:15:39.206Z,21.00
2022-11-28T13:18:38.208Z,21.50
2022-11-28T13:21:19.104Z,23.70
2022-11-28T13:24:03.751Z,21.60
2022-11-28T13:26:52.530Z,21.40
2022-11-28T13:30:13.507Z,22.40
2022-11-28T13:33:11.551Z,24.30
2022-11-28T13:35:47.266Z,22.60
2022-11-28T13:39:12.731Z,24.60
2022-11-28T13:47:53.740Z,22.50
2022-11-28T13:50:36.293Z,22.30
2022-11-28T13:53:07.845Z,22.60
2022-11-28T13:55:50.614Z,25.80
2022-11-28T13:58:31.858Z,23.40
2022-11-28T14:01:12.513Z,26.60
2022-11-28T14:03:54.100Z,23.60
2022-11-28T14:06:40.479Z,23.70
2022-11-28T14:09:13.193Z,20.30
2022-11-28T14:12:07.746Z,22.90
2022-11-28T14:15:21.657Z,22.30
2022-11-28T14:18:55.805Z,16.90
2022-11-28T14:21:54.414Z,21.30
2022-11-28T14:24:47.464Z,22.60
2022-11-28T14:27:27.072Z,23.50
2022-11-28T14:30:02.058Z,20.90
2022-11-28T14:32:36.055Z,24.10
2022-11-28T14:37:59.816Z,24.40
2022-11-28T14:40:50.492Z,23.10
2022-11-28T14:43:30.792Z,22.70
2022-11-28T14:46:25.743Z,20.40
2022-11-28T14:49:00.462Z,21.10
2022-11-28T14:51:47.791Z,21.60
2022-11-28T14:54:22.352Z,21.70
2022-11-28T14:56:58.244Z,22.10
2022-11-28T14:59:34.561Z,21.70
2022-11-28T15:02:32.267Z,22.80
2022-11-28T15:05:30.523Z,22.30
2022-11-28T15:08:11.265Z,20.90
2022-11-28T15:10:58.773Z,20.50
2022-11-28T15:13:54.542Z,21.90
2022-11-28T15:16:24.371Z,22.90
2022-11-28T15:19:06.437Z,21.10
2022-11-28T15:21:45.124Z,24.30
2022-11-28T15:24:37.687Z,21.80
2022-11-28T15:27:08.943Z,18.80
2022-11-28T15:29:37.570Z,19.90
2022-11-28T15:32:06.560Z,22.50
2022-11-28T15:34:38.083Z,21.50
2022-11-28T15:37:15.740Z,19.60
2022-11-28T15:39:48.391Z,20.50
2022-11-28T15:42:27.186Z,24.20
2022-11-28T15:45:35.708Z,20.90
2022-11-28T15:48:07.807Z,20.20
2022-11-28T15:50:36.630Z,21.80
2022-11-28T15:53:17.877Z,21.10
2022-11-28T15:55:46.912Z,20.80
2022-11-28T15:58:30.991Z,21.70
2022-11-28T16:01:10.071Z,18.50
2022-11-28T16:04:02.550Z,23.20
2022-11-28T16:06:34.519Z,23.40
2022-11-28T16:09:07.326Z,24.30
2022-11-28T16:11:37.108Z,23.10
2022-11-28T16:14:11.489Z,24.00
2022-11-28T16:16:40.683Z,21.90
2022-11-28T16:19:32.373Z,21.80
2022-11-28T16:22:04.737Z,19.50
2022-11-28T16:24:44.887Z,20.60
2022-11-28T16:27:37.870Z,22.10
2022-11-28T16:30:32.130Z,21.10
2022-11-28T16:33:01.852Z,21.60
2022-11-28T16:35:41.667Z,22.30
2022-11-28T16:38:23.912Z,24.20
2022-11-28T16:41:03.452Z,21.60
2022-11-28T16:43:39.768Z,20.90
2022-11-28T16:46:23.429Z,19.60
2022-11-28T16:48:58.803Z,21.60
2022-11-28T16:51:41.578Z,20.90
2022-11-28T16:54:30.065Z,22.00
2022-11-28T16:57:14.989Z,22.40
2022-11-28T16:59:45.857Z,21.60
2022-11-28T17:02:23.526Z,22.00
2022-11-28T17:04:55.306Z,20.90
2022-11-28T17:07:25.425Z,19.30
2022-11-28T17:09:55.017Z,19.00
2022-11-28T17:12:24.374Z,21.90
2022-11-28T17:14:53.552Z,22.80
2022-11-28T17:17:24.349Z,23.70
2022-11-28T17:19:53.994Z,23.20
2022-11-28T17:22:40.967Z,23.10
2022-11-28T17:25:21.555Z,23.60
2022-11-28T17:27:51.145Z,21.80
2022-11-28T17:30:21.862Z,21.30
2022-11-28T17:32:53.594Z,21.10
2022-11-28T17:35:25.553Z,21.70
2022-11-28T17:37:55.617Z,19.90
2022-11-28T17:40:34.005Z,21.60
2022-11-28T17:43:05.741Z,23.90
2022-11-28T17:45:38.378Z,23.90
2022-11-28T17:50:45.771Z,22.00
2022-11-28T17:53:19.609Z,21.90
2022-11-28T17:56:00.623Z,21.60
2022-11-28T17:58:31.921Z,20.70
2022-11-28T18:01:02.180Z,22.00
2022-11-28T18:03:31.790Z,22.10
2022-11-28T18:06:01.725Z,21.50
2022-11-28T18:08:31.107Z,20.50
2022-11-28T18:11:09.790Z,25.00
2022-11-28T18:13:43.414Z,23.60
2022-11-28T18:16:15.500Z,24.00
2022-11-28T18:18:44.882Z,25.50
2022-11-28T18:21:19.167Z,21.50
2022-11-28T18:23:51.371Z,21.20
2022-11-28T18:26:28.101Z,22.60
2022-11-28T18:28:58.393Z,26.30
2022-11-28T18:31:30.100Z,22.20
2022-11-28T18:34:04.789Z,22.00
2022-11-28T18:36:36.614Z,21.70
2022-11-28T18:39:09.366Z,21.80
2022-11-28T18:41:40.905Z,21.20
2022-11-28T18:44:12.174Z,21.90
2022-11-28T18:46:41.737Z,23.00
2022-11-28T18:49:12.858Z,21.70
2022-11-28T18:51:43.046Z,21.00
2022-11-28T18:54:17.643Z,24.60
2022-11-28T18:56:50.520Z,22.10
2022-11-28T18:59:21.032Z,24.60
2022-11-28T19:01:50.934Z,25.50
2022-11-28T19:04:21.598Z,21.20
2022-11-28T19:06:50.864Z,21.00
2022-11-28T19:09:19.660Z,21.30
2022-11-28T19:11:50.167Z,20.90
2022-11-28T19:14:22.068Z,22.30
2022-11-28T19:16:54.918Z,23.80
2022-11-28T19:19:25.096Z,23.40
2022-11-28T19:21:55.683Z,22.50
2022-11-28T19:24:27.495Z,21.40
2022-11-28T19:26:58.692Z,23.80
2022-11-28T19:29:30.467Z,22.40
2022-11-28T19:32:01.717Z,24.10
2022-11-28T19:34:33.228Z,23.50
2022-11-28T19:37:04.149Z,23.80
2022-11-28T19:39:34.717Z,21.80
2022-11-28T19:42:07.993Z,24.60
2022-11-28T19:44:38.219Z,22.30
2022-11-28T19:47:10.939Z,21.60
2022-11-28T19:49:43.101Z,24.40
2022-11-28T19:52:12.786Z,21.20
2022-11-28T19:54:43.356Z,25.50
2022-11-28T19:57:17.753Z,22.70
2022-11-28T20:02:26.404Z,24.30
2022-11-28T20:04:56.832Z,23.90
2022-11-28T20:07:26.175Z,23.10
2022-11-28T20:10:00.246Z,23.10
2022-11-28T20:12:30.269Z,22.00
2022-11-28T20:14:59.774Z,23.60
2022-11-28T20:17:29.672Z,23.70
2022-11-28T20:19:59.374Z,23.60
2022-11-28T20:22:32.149Z,23.70
2022-11-28T20:25:02.133Z,24.50
2022-11-28T20:27:31.669Z,24.90
2022-11-28T20:30:07.048Z,23.40
2022-11-28T20:32:39.174Z,23.40
2022-11-28T20:35:09.802Z,22.40
2022-11-28T20:37:40.673Z,25.10
2022-11-28T20:40:10.711Z,23.10
2022-11-28T20:42:40.532Z,21.70
2022-11-28T20:45:10.905Z,23.50
2022-11-28T20:47:49.697Z,21.50
2022-11-28T20:50:20.853Z,22.20
2022-11-28T20:52:50.778Z,18.80
2022-11-28T20:55:21.151Z,20.30
2022-11-28T20:57:51.240Z,19.60
2022-11-28T21:00:26.351Z,21.00
2022-11-28T21:02:56.793Z,20.00
2022-11-28T21:05:26.289Z,22.10
2022-11-28T21:07:55.357Z,20.90
2022-11-28T21:10:25.265Z,20.10
2022-11-28T21:12:54.139Z,19.40
2022-11-28T21:15:23.148Z,20.20
2022-11-28T21:17:51.871Z,19.60
2022-11-28T21:20:20.224Z,18.60
2022-11-28T21:22:48.655Z,20.50
2022-11-28T21:25:18.026Z,19.40
2022-11-28T21:27:46.702Z,18.70
2022-11-28T21:30:15.522Z,19.50
2022-11-28T21:32:44.001Z,17.80
2022-11-28T21:35:12.412Z,18.20
2022-11-28T21:37:40.780Z,18.50
2022-11-28T21:40:09.837Z,20.30
2022-11-28T21:42:38.260Z,19.20
2022-11-28T21:45:07.074Z,17.60
2022-11-28T21:47:36.601Z,18.70
2022-11-28T21:50:05.446Z,17.20
2022-11-28T21:52:33.797Z,16.20
2022-11-28T21:55:02.164Z,15.00
2022-11-28T21:57:30.459Z,20.00
2022-11-28T21:59:59.237Z,21.60
2022-11-28T22:02:31.003Z,19.00
2022-11-28T22:05:00.367Z,19.10
2022-11-28T22:07:28.770Z,18.30
2022-11-28T22:09:57.150Z,20.40
2022-11-28T22:12:25.472Z,18.90
2022-11-28T22:14:53.827Z,17.80
2022-11-28T22:17:22.181Z,15.00
2022-11-28T22:19:52.052Z,15.40
2022-11-28T22:22:20.473Z,16.50
2022-11-28T22:24:48.853Z,17.10
2022-11-28T22:27:17.577Z,17.60
2022-11-28T22:29:46.454Z,19.00
2022-11-28T22:32:16.700Z,18.30
2022-11-28T22:34:45.543Z,17.50
2022-11-28T22:37:14.549Z,16.80
2022-11-28T22:39:43.147Z,18.10
2022-11-28T22:42:11.600Z,17.90
2022-11-28T22:44:40.053Z,16.90
2022-11-28T22:47:08.544Z,17.50
2022-11-28T22:49:36.947Z,17.50
2022-11-28T22:52:05.461Z,16.40
2022-11-28T22:54:34.113Z,15.30
2022-11-28T22:57:02.405Z,16.30
2022-11-28T22:59:33.932Z,16.00
2022-11-28T23:02:03.568Z,16.60
2022-11-28T23:04:32.124Z,13.20
2022-11-28T23:07:00.567Z,16.20
2022-11-28T23:09:29.016Z,16.30
2022-11-28T23:11:57.380Z,16.10
2022-11-28T23:14:25.925Z,14.90
2022-11-28T23:16:54.466Z,13.70
2022-11-28T23:19:22.930Z,13.60
2022-11-28T23:21:51.428Z,16.00
2022-11-28T23:24:21.833Z,14.70
2022-11-28T23:26:52.223Z,14.30
2022-11-28T23:29:21.498Z,15.30
2022-11-28T23:31:49.960Z,13.40
2022-11-28T23:34:18.451Z,13.90
2022-11-28T23:36:47.397Z,14.20
2022-11-28T23:39:18.873Z,16.10
2022-11-28T23:41:48.053Z,14.50
2022-11-28T23:44:18.339Z,15.30
2022-11-28T23:46:49.709Z,14.30
2022-11-28T23:49:18.015Z,15.30
2022-11-28T23:51:46.475Z,13.80
2022-11-28T23:54:15.094Z,16.10
2022-11-28T23:56:43.939Z,15.10
2022-11-28T23:59:13.572Z,15.40
